Time;durP1;ratioP1;P1;durP2;ratioP2;P2;SDS_P1;SDS_P2;PMS_P1;PMS_P2;Temp;Humidity;BMP_temperature;BMP_pressure;BME280_temperature;BME280_humidity;BME280_pressure;Samples;Min_cycle;Max_cycle;Signal;HPM_P1;HPM_P2
2022/01/09 00:00:31;;;;;;;7.93;7.07;;;;;;;4.30;96.77;98813.22;5065092;28;20031;-73
2022/01/09 00:02:59;;;;;;;8.57;7.65;;;;;;;4.29;96.58;98809.72;5070141;28;20070;-72
2022/01/09 00:05:26;;;;;;;6.85;6.15;;;;;;;4.31;96.51;98814.81;5068366;28;20111;-73
2022/01/09 00:07:53;;;;;;;7.85;6.88;;;;;;;4.33;96.61;98810.06;5067933;28;20446;-73
2022/01/09 00:10:21;;;;;;;8.02;7.22;;;;;;;4.29;96.85;98809.72;5066915;28;20511;-70
2022/01/09 00:12:46;;;;;;;7.78;6.97;;;;;;;4.29;96.45;98812.38;5071069;28;20056;-71
2022/01/09 00:15:12;;;;;;;9.85;7.55;;;;;;;4.35;96.67;98816.78;5068713;28;20037;-71
2022/01/09 00:17:38;;;;;;;7.68;6.15;;;;;;;4.30;96.41;98818.53;5071555;28;20042;-70
2022/01/09 00:20:05;;;;;;;7.95;7.20;;;;;;;4.35;96.99;98821.28;5071054;28;20400;-71
2022/01/09 00:22:49;;;;;;;8.07;7.05;;;;;;;4.26;96.17;98823.50;5068956;28;20031;-71
2022/01/09 00:25:17;;;;;;;8.57;7.40;;;;;;;4.38;96.51;98808.31;5071231;28;20048;-71
2022/01/09 00:27:43;;;;;;;7.55;6.78;;;;;;;4.31;96.40;98812.97;5071761;28;20034;-71
2022/01/09 00:30:13;;;;;;;8.38;7.43;;;;;;;4.34;96.63;98817.00;5071138;28;20102;-72
2022/01/09 00:32:38;;;;;;;9.13;7.10;;;;;;;4.40;95.97;98813.41;5072041;28;20074;-72
2022/01/09 00:35:05;;;;;;;7.88;7.13;;;;;;;4.34;96.58;98817.78;5070398;28;20156;-73
2022/01/09 00:37:31;;;;;;;11.00;7.13;;;;;;;4.29;96.26;98822.22;5070838;28;20431;-72
2022/01/09 00:39:56;;;;;;;8.93;7.93;;;;;;;4.31;96.55;98828.09;5068212;28;20128;-74
2022/01/09 00:42:22;;;;;;;9.45;8.52;;;;;;;4.37;96.46;98824.50;5071561;28;20039;-74
2022/01/09 00:44:47;;;;;;;10.02;8.52;;;;;;;4.32;96.61;98819.88;5066793;28;20076;-74
2022/01/09 00:47:14;;;;;;;8.90;8.00;;;;;;;4.32;96.87;98819.09;5071922;28;20020;-74
2022/01/09 00:49:40;;;;;;;9.10;8.18;;;;;;;4.30;97.12;98815.88;5065439;28;20049;-73
2022/01/09 00:52:05;;;;;;;10.68;9.10;;;;;;;4.25;97.31;98821.88;5066079;28;20105;-74
2022/01/09 00:54:30;;;;;;;9.93;7.82;;;;;;;4.30;96.85;98829.16;5071473;28;20138;-73
2022/01/09 00:56:56;;;;;;;9.90;8.75;;;;;;;4.39;96.78;98827.75;5068524;28;20028;-71
2022/01/09 00:59:22;;;;;;;10.25;8.57;;;;;;;4.33;96.81;98832.16;5065250;28;20032;-72
2022/01/09 01:01:48;;;;;;;11.05;8.15;;;;;;;4.32;97.34;98838.50;5058781;28;20095;-73
2022/01/09 01:04:13;;;;;;;8.65;7.78;;;;;;;4.28;97.10;98840.03;5062796;28;20040;-71
2022/01/09 01:06:39;;;;;;;9.35;8.40;;;;;;;4.30;97.37;98842.44;5067509;28;20109;-71
2022/01/09 01:09:04;;;;;;;8.65;7.78;;;;;;;4.31;97.48;98841.38;5062816;28;20047;-72
2022/01/09 01:11:30;;;;;;;10.65;9.10;;;;;;;4.34;97.38;98851.56;5069344;28;20028;-73
2022/01/09 01:13:56;;;;;;;8.10;7.28;;;;;;;4.32;97.26;98843.81;5071187;28;20067;-71
2022/01/09 01:16:21;;;;;;;8.45;7.65;;;;;;;4.29;97.68;98851.44;5070828;28;20028;-71
2022/01/09 01:18:46;;;;;;;9.43;8.00;;;;;;;4.30;97.35;98861.06;5060467;28;20060;-72
2022/01/09 01:21:13;;;;;;;10.30;7.93;;;;;;;4.31;97.84;98857.34;5056835;28;20431;-72
2022/01/09 01:23:39;;;;;;;9.40;8.38;;;;;;;4.47;97.27;98869.94;5063129;28;20388;-70
2022/01/09 01:26:04;;;;;;;11.02;8.68;;;;;;;4.40;96.99;98862.06;5061625;28;20071;-70
2022/01/09 01:28:31;;;;;;;9.73;8.75;;;;;;;4.38;97.22;98871.34;5062500;28;20606;-71
2022/01/09 01:30:56;;;;;;;9.32;8.40;;;;;;;4.46;97.74;98876.31;5056568;28;20119;-70
2022/01/09 01:33:22;;;;;;;9.20;7.78;;;;;;;4.46;97.41;98877.09;5061808;28;20125;-71
2022/01/09 01:35:48;;;;;;;9.20;7.60;;;;;;;4.53;96.81;98879.63;5056779;28;20055;-71
2022/01/09 01:38:14;;;;;;;9.07;7.95;;;;;;;4.48;97.17;98880.31;5052184;28;20029;-71
2022/01/09 01:40:40;;;;;;;8.75;7.20;;;;;;;4.53;96.93;98884.13;5051861;28;20479;-70
2022/01/09 01:43:06;;;;;;;8.07;6.35;;;;;;;4.58;96.73;98890.34;5052090;28;20041;-72
2022/01/09 01:45:31;;;;;;;6.70;6.00;;;;;;;4.65;97.61;98884.91;5052188;28;20044;-71
2022/01/09 01:48:05;;;;;;;5.45;4.32;;;;;;;4.87;97.49;98901.88;5051776;28;20033;-71
2022/01/09 01:50:35;;;;;;;4.32;3.38;;;;;;;4.90;96.93;98904.88;5052192;28;20489;-72
2022/01/09 01:53:01;;;;;;;4.68;3.85;;;;;;;5.05;97.08;98909.69;5051478;28;20047;-70
2022/01/09 01:55:28;;;;;;;3.78;3.30;;;;;;;5.03;97.16;98911.78;5051690;28;20044;-72
2022/01/09 01:57:55;;;;;;;3.80;3.50;;;;;;;5.10;96.71;98923.09;5055310;28;20114;-70
2022/01/09 02:00:20;;;;;;;7.63;3.72;;;;;;;5.15;97.55;98920.53;5055155;28;20525;-71
2022/01/09 02:02:46;;;;;;;5.22;3.80;;;;;;;5.11;97.26;98922.06;5055624;28;20056;-71
2022/01/09 02:05:12;;;;;;;10.45;3.92;;;;;;;5.29;96.86;98930.66;5054634;28;20045;-70
2022/01/09 02:07:38;;;;;;;11.60;4.22;;;;;;;5.31;97.66;98928.56;5055535;28;20052;-71
2022/01/09 02:10:08;;;;;;;14.05;4.93;;;;;;;5.32;97.56;98924.06;5054687;28;20106;-71
2022/01/09 02:12:37;;;;;;;9.15;3.47;;;;;;;5.33;97.76;98933.66;5055225;28;20108;-70
2022/01/09 02:15:23;;;;;;;8.43;2.80;;;;;;;5.44;97.59;98945.31;5055373;28;20036;-71
2022/01/09 02:17:48;;;;;;;12.20;2.70;;;;;;;5.55;97.99;98942.59;5055139;28;20355;-71
2022/01/09 02:20:14;;;;;;;12.23;2.28;;;;;;;5.63;97.51;98947.53;5054036;28;20037;-71
2022/01/09 02:22:40;;;;;;;11.75;2.97;;;;;;;5.60;97.76;98953.31;5047651;28;20038;-70
2022/01/09 02:25:06;;;;;;;16.77;3.30;;;;;;;5.63;97.61;98968.03;5034980;28;20041;-70
2022/01/09 02:27:31;;;;;;;21.25;3.10;;;;;;;5.64;97.97;98970.44;5041192;28;20036;-70
2022/01/09 02:29:57;;;;;;;19.17;3.30;;;;;;;5.63;97.80;98968.03;5054608;28;20036;-70
2022/01/09 02:32:22;;;;;;;13.10;2.92;;;;;;;5.64;98.09;98969.66;5055161;28;20103;-69
2022/01/09 02:34:50;;;;;;;12.45;2.80;;;;;;;5.69;98.26;98970.56;5054749;28;20448;-72
2022/01/09 02:37:15;;;;;;;24.35;3.72;;;;;;;5.69;96.99;98986.56;5054466;28;20040;-71
2022/01/09 02:39:41;;;;;;;30.85;4.50;;;;;;;5.73;97.14;98995.69;5054424;28;20120;-71
2022/01/09 02:42:21;;;;;;;30.60;5.40;;;;;;;5.72;97.44;98996.72;5054603;28;20420;-71
2022/01/09 02:44:46;;;;;;;28.23;4.25;;;;;;;5.76;96.58;98989.06;5054994;28;20454;-71
2022/01/09 02:47:12;;;;;;;20.52;3.05;;;;;;;5.72;96.91;98999.38;5054790;28;20039;-71
2022/01/09 02:49:38;;;;;;;32.90;4.50;;;;;;;5.74;96.45;99007.94;5054132;28;20041;-71
2022/01/09 02:52:10;;;;;;;34.50;5.00;;;;;;;5.79;95.68;99012.56;5054505;28;20070;-72
2022/01/09 02:57:20;;;;;;;39.40;5.55;;;;;;;5.78;95.76;99027.75;5054803;28;20039;-71
2022/01/09 02:59:45;;;;;;;34.83;5.97;;;;;;;5.90;95.27;99030.38;5053942;28;20033;-71
2022/01/09 03:02:11;;;;;;;36.45;4.47;;;;;;;5.90;96.02;99039.19;5054386;28;20047;-71
2022/01/09 03:04:36;;;;;;;40.20;6.55;;;;;;;5.86;95.83;99031.91;5069702;28;20147;-70
2022/01/09 03:07:03;;;;;;;29.83;4.45;;;;;;;5.90;95.59;99044.53;5074133;28;20033;-71
2022/01/09 03:09:28;;;;;;;38.58;6.68;;;;;;;5.82;95.57;99042.22;5060570;28;20500;-72
2022/01/09 03:11:54;;;;;;;21.35;4.55;;;;;;;5.83;95.99;99054.53;5053766;28;20083;-73
2022/01/09 03:14:19;;;;;;;44.90;5.85;;;;;;;5.87;95.23;99052.19;5054503;28;20365;-73
2022/01/09 03:16:45;;;;;;;38.22;5.68;;;;;;;5.85;95.59;99060.44;5053909;28;20063;-72
2022/01/09 03:19:10;;;;;;;40.90;5.32;;;;;;;5.93;94.98;99064.56;5052642;28;20439;-72
2022/01/09 03:21:35;;;;;;;25.63;4.30;;;;;;;5.93;94.61;99072.56;5053870;28;20051;-72
2022/01/09 03:24:01;;;;;;;38.42;5.80;;;;;;;5.94;95.11;99079.50;5053743;28;20048;-71
2022/01/09 03:26:27;;;;;;;38.42;4.45;;;;;;;5.92;95.28;99085.09;5052883;28;20040;-71
2022/01/09 03:28:52;;;;;;;38.67;5.43;;;;;;;5.89;94.75;99082.91;5053486;28;20037;-72
2022/01/09 03:31:17;;;;;;;30.85;4.20;;;;;;;5.93;94.86;99075.25;5053627;28;20101;-72
2022/01/09 03:33:43;;;;;;;47.00;6.25;;;;;;;6.03;93.55;99089.53;5053680;28;20519;-71
2022/01/09 03:36:08;;;;;;;44.75;8.68;;;;;;;6.01;93.96;99091.63;5053132;28;20056;-72
2022/01/09 03:38:34;;;;;;;33.47;5.25;;;;;;;6.03;93.83;99091.44;5053960;28;20100;-72
2022/01/09 03:40:59;;;;;;;26.20;6.25;;;;;;;6.01;93.46;99099.63;5053112;28;20040;-74
2022/01/09 03:43:24;;;;;;;38.65;6.25;;;;;;;6.09;93.38;99106.47;5053396;28;20036;-72
2022/01/09 03:45:50;;;;;;;32.03;4.78;;;;;;;6.05;93.19;99114.13;5053138;28;20037;-71
2022/01/09 03:48:15;;;;;;;21.98;3.33;;;;;;;6.03;92.93;99118.09;5053125;28;20102;-72
2022/01/09 03:50:42;;;;;;;33.45;5.65;;;;;;;6.01;93.03;99117.50;5053508;28;20489;-72
2022/01/09 03:53:11;;;;;;;34.83;4.97;;;;;;;5.98;93.49;99134.78;5053173;28;20033;-72
2022/01/09 03:55:37;;;;;;;28.90;4.32;;;;;;;6.01;92.78;99136.97;5053053;28;20036;-71
2022/01/09 03:58:02;;;;;;;21.40;3.47;;;;;;;5.99;93.33;99133.75;5053335;28;20047;-71
2022/01/09 04:00:28;;;;;;;33.40;4.63;;;;;;;5.99;92.45;99139.09;5053015;28;20047;-73
2022/01/09 04:02:54;;;;;;;29.02;4.10;;;;;;;5.99;92.71;99152.41;5051581;28;20043;-73
2022/01/09 04:05:19;;;;;;;43.72;4.35;;;;;;;5.91;92.54;99162.63;5053248;28;20373;-73
2022/01/09 04:07:45;;;;;;;27.20;5.93;;;;;;;5.94;92.81;99168.28;5052836;28;20037;-72
2022/01/09 04:10:10;;;;;;;27.75;4.38;;;;;;;6.00;91.54;99163.88;5034081;28;20045;-72
2022/01/09 04:12:47;;;;;;;22.77;4.88;;;;;;;5.98;91.71;99160.63;5032910;28;20040;-71
2022/01/09 04:15:12;;;;;;;29.08;4.22;;;;;;;5.99;92.10;99173.75;5032844;28;20033;-72
2022/01/09 04:20:07;;;;;;;14.82;2.88;;;;;;;5.87;91.98;99196.13;5038737;28;20116;-72
2022/01/09 04:22:33;;;;;;;38.63;4.32;;;;;;;5.88;92.07;99189.75;5052867;28;20037;-72
2022/01/09 04:24:58;;;;;;;13.55;3.47;;;;;;;5.95;90.96;99183.25;5052006;28;20394;-74
2022/01/09 04:27:24;;;;;;;13.63;2.92;;;;;;;5.84;92.53;99199.25;5052984;28;20033;-71
2022/01/09 04:29:49;;;;;;;19.70;3.50;;;;;;;5.82;91.82;99202.13;5052389;28;20115;-72
2022/01/09 04:32:15;;;;;;;22.45;4.03;;;;;;;5.76;92.36;99203.06;5053271;28;20369;-72
2022/01/09 04:34:40;;;;;;;26.90;3.90;;;;;;;5.69;92.15;99220.22;5051273;28;20481;-72
2022/01/09 04:37:05;;;;;;;21.10;3.75;;;;;;;5.66;91.91;99221.50;5052424;28;20075;-73
2022/01/09 04:39:31;;;;;;;19.15;3.40;;;;;;;5.65;91.95;99233.19;5050828;28;20048;-72
2022/01/09 04:41:57;;;;;;;26.98;3.72;;;;;;;5.68;90.98;99235.38;5052100;28;20041;-71
2022/01/09 04:44:23;;;;;;;21.08;2.85;;;;;;;5.61;92.23;99239.22;5053084;28;20385;-73
2022/01/09 04:46:56;;;;;;;17.08;2.75;;;;;;;5.67;90.75;99243.63;5052511;28;20041;-71
2022/01/09 04:49:25;;;;;;;15.65;2.78;;;;;;;5.62;91.02;99254.97;5051986;28;20052;-71
2022/01/09 04:51:50;;;;;;;14.43;3.67;;;;;;;5.61;90.87;99252.53;5052083;28;20393;-72
2022/01/09 04:54:16;;;;;;;14.38;2.22;;;;;;;5.54;91.95;99266.00;5052452;28;20044;-71
2022/01/09 04:56:41;;;;;;;18.23;2.85;;;;;;;5.54;91.40;99274.00;5052833;28;20045;-72
2022/01/09 04:59:06;;;;;;;19.73;3.42;;;;;;;5.44;91.81;99276.41;5052561;28;20037;-74
2022/01/09 05:01:32;;;;;;;15.65;2.38;;;;;;;5.35;91.83;99291.09;5045216;28;20033;-71
2022/01/09 05:03:57;;;;;;;15.15;1.83;;;;;;;5.44;89.51;99286.25;5032004;28;20120;-73
2022/01/09 05:06:24;;;;;;;10.27;2.63;;;;;;;5.38;89.84;99294.09;5031866;28;20038;-71
2022/01/09 05:08:49;;;;;;;16.25;2.63;;;;;;;5.29;90.26;99294.66;5031793;28;20032;-70
2022/01/09 05:11:15;;;;;;;15.43;3.20;;;;;;;5.26;90.44;99301.28;5032159;28;20041;-71
2022/01/09 05:13:40;;;;;;;9.88;1.58;;;;;;;5.28;89.09;99306.38;5030489;28;20029;-73
2022/01/09 05:16:06;;;;;;;14.75;2.60;;;;;;;5.27;88.75;99315.38;5045676;28;20068;-71
2022/01/09 05:18:39;;;;;;;10.48;1.83;;;;;;;5.22;88.45;99316.09;5051946;28;20118;-71
2022/01/09 05:21:05;;;;;;;10.18;1.60;;;;;;;5.24;88.51;99330.00;5052392;28;20059;-72
2022/01/09 05:23:30;;;;;;;10.80;1.92;;;;;;;5.29;86.70;99335.44;5052455;28;20021;-71
2022/01/09 05:25:55;;;;;;;10.57;2.22;;;;;;;5.19;88.46;99345.81;5051012;28;20501;-72
2022/01/09 05:28:21;;;;;;;9.20;1.15;;;;;;;5.26;87.94;99351.06;5052118;28;20044;-70
2022/01/09 05:30:46;;;;;;;15.13;2.42;;;;;;;5.34;88.28;99348.06;5052059;28;20083;-71
2022/01/09 05:33:11;;;;;;;14.15;2.60;;;;;;;5.34;87.91;99362.22;5056176;28;20501;-72
2022/01/09 05:35:37;;;;;;;5.22;1.48;;;;;;;5.29;89.56;99372.72;5055711;28;20071;-71
2022/01/09 05:38:02;;;;;;;13.38;1.95;;;;;;;5.28;89.81;99380.94;5056116;28;20086;-73
2022/01/09 05:40:28;;;;;;;16.88;2.20;;;;;;;5.33;89.59;99381.88;5055720;28;20037;-72
2022/01/09 05:42:53;;;;;;;16.60;2.70;;;;;;;5.34;88.56;99394.16;5054566;28;20037;-71
2022/01/09 05:45:19;;;;;;;13.00;2.28;;;;;;;5.29;90.13;99398.53;5056100;28;20051;-72
2022/01/09 05:47:45;;;;;;;14.50;2.38;;;;;;;5.32;89.39;99398.91;5055917;28;20037;-71
2022/01/09 05:50:11;;;;;;;16.15;2.47;;;;;;;5.19;90.79;99404.41;5055736;28;20378;-73
2022/01/09 05:52:36;;;;;;;15.85;2.20;;;;;;;5.10;91.61;99408.41;5053983;28;20045;-71
2022/01/09 05:55:03;;;;;;;10.52;2.03;;;;;;;5.20;89.48;99405.22;5055480;28;20119;-72
2022/01/09 05:57:29;;;;;;;12.35;1.73;;;;;;;5.24;89.17;99411.72;5055622;28;20029;-72
2022/01/09 05:59:54;;;;;;;6.63;1.67;;;;;;;5.18;89.70;99412.63;5055225;28;20557;-72
2022/01/09 06:02:19;;;;;;;13.40;1.83;;;;;;;5.18;89.68;99421.44;5055796;28;20025;-73
2022/01/09 06:04:45;;;;;;;10.07;1.95;;;;;;;5.14;89.65;99422.09;5055599;28;20121;-72
2022/01/09 06:07:10;;;;;;;15.45;2.88;;;;;;;5.14;89.85;99409.59;5055234;28;20124;-72
2022/01/09 06:09:36;;;;;;;14.40;2.78;;;;;;;5.16;89.47;99428.00;5041244;28;20045;-72
2022/01/09 06:12:02;;;;;;;13.55;3.45;;;;;;;5.14;89.83;99438.88;5035412;28;20040;-72
2022/01/09 06:14:27;;;;;;;16.50;3.15;;;;;;;5.20;89.01;99430.00;5035637;28;20037;-70
2022/01/09 06:16:53;;;;;;;18.25;4.35;;;;;;;5.17;90.19;99449.06;5047159;28;20150;-71
2022/01/09 06:19:18;;;;;;;15.38;4.22;;;;;;;5.18;89.45;99444.56;5055074;28;20037;-72
2022/01/09 06:21:44;;;;;;;15.05;3.00;;;;;;;5.25;89.70;99459.41;5055252;28;20029;-72
2022/01/09 06:24:10;;;;;;;15.75;3.65;;;;;;;5.21;89.92;99457.41;5054817;28;20049;-71
2022/01/09 06:26:35;;;;;;;18.23;2.28;;;;;;;5.18;89.79;99461.38;5053995;28;20066;-72
2022/01/09 06:29:02;;;;;;;20.98;3.33;;;;;;;5.21;90.19;99465.41;5054469;28;20037;-72
2022/01/09 06:31:27;;;;;;;19.23;3.33;;;;;;;5.32;88.81;99468.16;5054703;28;20100;-72
2022/01/09 06:33:53;;;;;;;9.40;2.30;;;;;;;5.37;88.27;99475.44;5054533;28;20029;-71
2022/01/09 06:36:18;;;;;;;12.57;2.42;;;;;;;5.24;89.39;99489.75;5054736;28;20029;-71
2022/01/09 06:38:44;;;;;;;12.68;2.17;;;;;;;5.26;88.42;99492.19;5054989;28;20028;-70
2022/01/09 06:41:09;;;;;;;15.00;3.08;;;;;;;5.27;88.44;99486.63;5054682;28;20400;-71
2022/01/09 06:43:34;;;;;;;7.32;1.23;;;;;;;5.20;89.04;99498.41;5054448;28;20362;-72
2022/01/09 06:46:00;;;;;;;15.43;1.90;;;;;;;5.18;89.15;99497.81;5054631;28;20087;-72
2022/01/09 06:48:25;;;;;;;22.98;3.53;;;;;;;5.14;89.92;99504.63;5054423;28;20388;-73
2022/01/09 06:50:50;;;;;;;12.98;2.15;;;;;;;5.09;89.65;99504.50;5053129;28;20041;-71
2022/01/09 06:53:16;;;;;;;19.27;2.58;;;;;;;5.04;90.13;99517.63;5054773;28;20435;-72
2022/01/09 06:55:43;;;;;;;21.55;2.17;;;;;;;5.05;89.19;99529.94;5054601;28;20120;-72
2022/01/09 06:58:09;;;;;;;14.80;2.65;;;;;;;5.02;89.29;99527.69;5054102;28;20037;-71
2022/01/09 07:00:34;;;;;;;19.52;3.17;;;;;;;5.04;89.34;99536.28;5053078;28;20072;-72
2022/01/09 07:02:59;;;;;;;17.58;2.97;;;;;;;5.01;88.77;99539.41;5054102;28;20150;-72
2022/01/09 07:05:25;;;;;;;13.18;2.33;;;;;;;5.02;88.38;99549.00;5054611;28;20028;-71
2022/01/09 07:07:50;;;;;;;11.85;2.80;;;;;;;5.08;88.89;99548.09;5054238;28;20040;-71
2022/01/09 07:10:15;;;;;;;21.70;4.07;;;;;;;5.03;88.83;99555.97;5053924;28;20037;-72
2022/01/09 07:12:41;;;;;;;18.63;2.72;;;;;;;5.06;88.28;99552.84;5053967;28;20033;-72
2022/01/09 07:15:07;;;;;;;14.25;2.28;;;;;;;4.96;88.40;99556.00;5053900;28;20044;-71
2022/01/09 07:17:32;;;;;;;15.57;3.22;;;;;;;4.93;89.07;99569.78;5054350;28;20385;-71
2022/01/09 07:19:58;;;;;;;21.52;3.75;;;;;;;4.98;88.13;99567.25;5072346;28;20147;-72
2022/01/09 07:22:23;;;;;;;13.77;1.95;;;;;;;4.93;88.64;99576.94;5073895;28;20433;-72
2022/01/09 07:24:48;;;;;;;16.67;3.08;;;;;;;4.88;88.80;99569.59;5073346;28;20386;-70
2022/01/09 07:27:14;;;;;;;15.18;3.03;;;;;;;4.89;89.40;99578.41;5073662;28;20059;-72
2022/01/09 07:29:39;;;;;;;14.35;2.15;;;;;;;4.95;89.31;99574.88;5068680;28;20025;-71
2022/01/09 07:32:05;;;;;;;22.17;3.15;;;;;;;4.91;89.11;99587.81;5053466;28;20048;-71
2022/01/09 07:34:30;;;;;;;21.13;4.20;;;;;;;4.94;89.59;99592.69;5053729;28;20037;-71
2022/01/09 07:36:56;;;;;;;19.75;3.22;;;;;;;4.92;89.80;99596.59;5053502;28;20052;-70
2022/01/09 07:39:21;;;;;;;10.35;1.75;;;;;;;4.89;89.88;99599.69;5053415;28;20041;-72
2022/01/09 07:41:46;;;;;;;18.65;3.60;;;;;;;4.85;89.46;99612.63;5053595;28;20124;-71
2022/01/09 07:44:12;;;;;;;17.48;1.85;;;;;;;4.84;89.37;99607.50;5053453;28;20093;-71
2022/01/09 07:46:38;;;;;;;13.90;2.55;;;;;;;4.78;89.33;99611.03;5053475;28;20057;-71
2022/01/09 07:49:03;;;;;;;15.95;3.45;;;;;;;4.73;89.50;99629.53;5052970;28;20056;-70
2022/01/09 07:51:28;;;;;;;13.73;2.55;;;;;;;4.74;88.84;99634.63;5052854;28;20041;-72
2022/01/09 07:53:54;;;;;;;10.65;2.58;;;;;;;4.75;88.38;99644.25;5052447;28;20116;-72
2022/01/09 07:56:19;;;;;;;14.93;2.22;;;;;;;4.66;89.05;99647.38;5053371;28;20032;-71
2022/01/09 07:58:45;;;;;;;10.77;2.70;;;;;;;4.71;88.88;99652.88;5053113;28;20505;-70
2022/01/09 08:01:10;;;;;;;18.00;2.85;;;;;;;4.67;88.77;99657.00;5053128;28;20047;-69
2022/01/09 08:03:35;;;;;;;11.75;2.13;;;;;;;4.58;89.54;99660.94;5053136;28;20124;-71
2022/01/09 08:06:02;;;;;;;12.27;2.45;;;;;;;4.62;89.02;99657.63;5052871;28;20037;-70
2022/01/09 08:08:27;;;;;;;12.85;2.20;;;;;;;4.56;88.77;99661.16;5053726;28;20016;-70
2022/01/09 08:10:53;;;;;;;8.88;2.05;;;;;;;4.55;89.05;99662.19;5052700;28;20045;-70
2022/01/09 08:13:18;;;;;;;17.73;1.98;;;;;;;4.60;88.64;99670.31;5052722;28;20335;-71
2022/01/09 08:15:44;;;;;;;11.02;2.58;;;;;;;4.60;87.29;99670.31;5052444;28;20379;-70
2022/01/09 08:18:09;;;;;;;10.23;2.30;;;;;;;4.54;87.96;99681.03;5056477;28;20045;-70
2022/01/09 08:20:35;;;;;;;8.02;1.80;;;;;;;4.51;87.75;99686.75;5073348;28;20020;-71
2022/01/09 08:23:02;;;;;;;10.80;2.40;;;;;;;4.42;89.21;99687.00;5071181;28;20116;-72
2022/01/09 08:25:27;;;;;;;13.13;2.28;;;;;;;4.42;88.87;99695.00;5052492;28;20044;-71
2022/01/09 08:27:53;;;;;;;10.45;2.13;;;;;;;4.40;88.89;99701.56;5052403;28;20428;-71
2022/01/09 08:30:19;;;;;;;7.32;1.75;;;;;;;4.36;89.39;99695.06;5052369;28;20392;-72
2022/01/09 08:32:45;;;;;;;13.77;2.25;;;;;;;4.40;89.62;99705.03;5052622;28;20457;-71
2022/01/09 08:35:11;;;;;;;13.95;2.78;;;;;;;4.43;89.02;99707.28;5060467;28;20375;-71
2022/01/09 08:37:37;;;;;;;9.98;1.88;;;;;;;4.39;89.17;99705.25;5058692;28;20036;-71
2022/01/09 08:40:03;;;;;;;9.13;2.38;;;;;;;4.37;89.69;99702.81;5062307;28;20086;-72
2022/01/09 08:42:29;;;;;;;14.75;2.45;;;;;;;4.39;89.42;99714.06;5062332;28;20027;-70
2022/01/09 08:44:54;;;;;;;13.25;2.00;;;;;;;4.34;90.20;99707.75;5060663;28;20036;-72
2022/01/09 08:47:23;;;;;;;9.18;2.38;;;;;;;4.39;89.64;99722.03;5065674;28;20049;-71
2022/01/09 08:49:49;;;;;;;5.22;1.98;;;;;;;4.36;89.97;99719.78;5062096;28;20037;-71
2022/01/09 08:52:14;;;;;;;5.63;1.45;;;;;;;4.30;90.18;99728.59;5060774;28;20058;-71
2022/01/09 08:54:39;;;;;;;14.80;1.80;;;;;;;4.37;89.46;99737.38;5062525;28;20032;-71
2022/01/09 08:57:06;;;;;;;11.63;1.92;;;;;;;4.38;89.92;99730.22;5061526;28;20041;-71
2022/01/09 08:59:32;;;;;;;7.55;2.17;;;;;;;4.53;88.10;99741.38;5061338;28;20020;-71
2022/01/09 09:01:57;;;;;;;6.95;2.17;;;;;;;4.42;89.93;99742.06;5063322;28;20064;-71
2022/01/09 09:04:23;;;;;;;9.13;2.42;;;;;;;4.39;89.68;99748.63;5062122;28;20416;-70
2022/01/09 09:06:48;;;;;;;3.70;1.67;;;;;;;4.38;89.53;99746.19;5066355;28;20395;-70
2022/01/09 09:09:13;;;;;;;15.10;2.10;;;;;;;4.48;89.15;99751.88;5066677;28;20123;-70
2022/01/09 09:11:39;;;;;;;7.70;1.52;;;;;;;4.42;89.59;99740.22;5065185;28;20064;-70
2022/01/09 09:14:05;;;;;;;11.15;2.40;;;;;;;4.44;88.96;99750.66;5065869;28;20044;-71
2022/01/09 09:16:32;;;;;;;16.13;2.17;;;;;;;4.52;88.88;99753.03;5063435;28;20041;-70
2022/01/09 09:18:58;;;;;;;4.72;2.10;;;;;;;4.51;89.18;99755.91;5062272;28;20055;-71
2022/01/09 09:21:23;;;;;;;19.80;4.82;;;;;;;4.51;89.37;99767.38;5065849;28;20062;-71
2022/01/09 09:29:21;;;;;;;9.95;2.85;;;;;;;4.62;88.86;99768.56;5085408;28;20047;-72
2022/01/09 09:31:46;;;;;;;15.35;2.58;;;;;;;4.70;88.68;99779.75;5070873;28;20131;-72
2022/01/09 09:34:12;;;;;;;14.20;2.45;;;;;;;4.77;89.07;99787.72;5075401;28;20119;-73
2022/01/09 09:36:37;;;;;;;9.48;2.10;;;;;;;4.78;88.99;99792.00;5074283;28;20449;-73
2022/01/09 09:39:05;;;;;;;10.82;2.13;;;;;;;4.79;89.05;99793.66;5387506;22;20053;-75
2022/01/09 09:41:31;;;;;;;5.20;1.90;;;;;;;4.84;89.13;99802.63;5051720;28;20028;-75
2022/01/09 09:44:35;;;;;;;9.40;2.00;;;;;;;4.94;88.00;99802.97;5073722;28;20071;-73
2022/01/09 09:47:01;;;;;;;5.57;1.70;;;;;;;4.95;88.51;99811.78;5056454;28;20040;-74
2022/01/09 09:49:27;;;;;;;13.13;2.65;;;;;;;4.96;88.67;99813.41;5053653;28;20041;-74
2022/01/09 09:51:52;;;;;;;10.95;2.28;;;;;;;5.03;87.67;99819.50;5055363;28;20160;-74
2022/01/09 09:54:17;;;;;;;9.85;1.85;;;;;;;5.01;88.04;99826.91;5048014;28;20052;-74
2022/01/09 09:56:43;;;;;;;9.18;2.60;;;;;;;5.03;86.82;99825.63;5055454;28;20160;-73
2022/01/09 09:59:08;;;;;;;9.70;2.55;;;;;;;5.02;87.51;99839.16;5041806;28;20403;-76
2022/01/09 10:01:36;;;;;;;7.75;2.35;;;;;;;5.01;87.45;99835.66;5067491;28;20074;-75
2022/01/09 10:04:03;;;;;;;7.60;1.50;;;;;;;5.08;87.29;99844.47;5045364;28;20037;-74
2022/01/09 10:06:40;;;;;;;6.53;1.98;;;;;;;5.07;87.24;99837.47;5033816;28;20049;-74
2022/01/09 10:09:12;;;;;;;11.40;2.53;;;;;;;5.16;87.78;99852.19;5045086;28;20041;-74
2022/01/09 10:11:42;;;;;;;6.68;2.20;;;;;;;5.21;87.88;99849.69;5040825;28;20042;-73
2022/01/09 10:14:28;;;;;;;7.97;2.13;;;;;;;5.24;87.62;99857.28;5047801;28;20086;-75
2022/01/09 10:17:16;;;;;;;13.23;2.78;;;;;;;5.33;86.90;99857.81;5041094;28;20090;-74
2022/01/09 10:19:47;;;;;;;12.23;2.72;;;;;;;5.42;86.86;99859.19;5038922;28;20480;-73
2022/01/09 10:22:30;;;;;;;;;;;;;;;5.41;86.29;99862.06;5049301;28;20740;-74
2022/01/09 10:24:57;;;;;;;5.93;1.58;;;;;;;5.35;86.61;99867.22;5048215;28;19916;-75
2022/01/09 10:27:40;;;;;;;10.85;1.98;;;;;;;5.43;85.83;99865.31;5052646;28;20052;-74
2022/01/09 10:30:06;;;;;;;16.08;1.88;;;;;;;5.44;85.69;99862.47;5078060;28;20059;-73
2022/01/09 10:32:33;;;;;;;11.10;2.03;;;;;;;5.44;86.21;99866.97;5079781;28;20102;-74
2022/01/09 10:35:17;;;;;;;7.95;2.38;;;;;;;5.47;85.67;99875.34;5070952;28;20036;-75
2022/01/09 10:37:45;;;;;;;9.57;2.40;;;;;;;5.42;86.77;99875.19;5069115;28;20503;-75
2022/01/09 10:40:19;;;;;;;14.15;2.35;;;;;;;5.40;86.33;99876.41;5069107;28;20430;-73
2022/01/09 10:42:45;;;;;;;8.68;2.25;;;;;;;5.48;85.92;99890.31;5070499;28;20383;-75
2022/01/09 10:45:21;;;;;;;15.00;2.40;;;;;;;5.62;85.48;99891.03;5070269;28;20055;-74
2022/01/09 10:47:48;;;;;;;8.00;2.25;;;;;;;5.59;85.66;99894.94;5070118;28;20131;-74
2022/01/09 10:50:27;;;;;;;5.82;2.03;;;;;;;5.64;85.65;99897.75;5068413;28;20060;-76
2022/01/09 10:52:52;;;;;;;15.93;3.30;;;;;;;5.62;85.61;99896.34;5071815;28;20037;-74
2022/01/09 10:55:18;;;;;;;15.38;2.42;;;;;;;5.68;85.35;99900.81;5072119;28;20033;-74
2022/01/09 10:57:45;;;;;;;7.60;1.80;;;;;;;5.71;86.09;99895.03;5063409;28;20048;-75
2022/01/09 11:00:13;;;;;;;6.90;2.03;;;;;;;5.72;85.33;99900.16;5050226;28;20040;-75
2022/01/09 11:02:39;;;;;;;6.75;2.03;;;;;;;5.72;85.51;99904.69;5052117;28;20529;-76
2022/01/09 11:05:06;;;;;;;4.72;1.90;;;;;;;5.70;86.80;99896.88;5078840;28;20155;-75
2022/01/09 11:07:31;;;;;;;15.82;2.78;;;;;;;5.76;86.96;99901.34;5071343;28;20052;-74
2022/01/09 11:09:58;;;;;;;17.77;3.92;;;;;;;5.73;85.53;99901.81;5040226;28;20518;-75
2022/01/09 11:12:31;;;;;;;13.43;2.67;;;;;;;5.70;85.79;99917.41;5061978;28;20561;-74
2022/01/09 11:15:00;;;;;;;13.48;1.80;;;;;;;5.69;86.80;99921.91;5077027;28;20047;-74
2022/01/09 11:17:27;;;;;;;13.27;3.33;;;;;;;5.58;86.40;99917.25;5084598;28;20016;-75
2022/01/09 11:19:52;;;;;;;8.73;2.40;;;;;;;5.56;86.28;99934.53;5068628;28;20115;-76
2022/01/09 11:22:19;;;;;;;10.80;2.22;;;;;;;5.52;85.67;99935.97;5069925;28;20058;-77
2022/01/09 11:25:08;;;;;;;9.38;1.73;;;;;;;5.42;85.98;99943.63;5071020;28;20032;-79
2022/01/09 11:27:55;;;;;;;4.32;1.48;;;;;;;5.40;85.37;99929.69;5063059;28;20073;-76
2022/01/09 11:30:56;;;;;;;7.00;2.10;;;;;;;5.30;85.38;99951.47;5045624;28;20048;-75
2022/01/09 11:33:51;;;;;;;7.50;1.83;;;;;;;5.25;85.78;99944.09;5047989;28;20044;-74
2022/01/09 11:36:40;;;;;;;4.95;1.67;;;;;;;5.20;85.74;99948.44;5048129;28;20064;-74
2022/01/09 11:39:14;;;;;;;5.95;1.42;;;;;;;5.21;85.89;99960.72;5042453;28;20136;-73
2022/01/09 11:41:42;;;;;;;7.00;2.85;;;;;;;5.31;84.73;99953.09;5049398;28;20066;-74
2022/01/09 11:44:10;;;;;;;6.90;1.83;;;;;;;5.19;85.09;99949.47;5065473;28;20040;-73
2022/01/09 11:46:57;;;;;;;6.85;1.92;;;;;;;5.30;84.47;99956.81;5060528;28;20095;-74